Time;durP1;ratioP1;P1;durP2;ratioP2;P2;SDS_P1;SDS_P2;PMS_P1;PMS_P2;Temp;Humidity;BMP_temperature;BMP_pressure;BME280_temperature;BME280_humidity;BME280_pressure;Samples;Min_cycle;Max_cycle;Signal;HPM_P1;HPM_P2
2022/01/30 00:01:51;;;;;;;0.00;0.00;;;7.10;99.90;;;;;;5009401;28;20033;-77
2022/01/30 00:04:17;;;;;;;0.30;0.30;;;7.10;99.90;;;;;;5013322;28;20050;-77
2022/01/30 00:06:43;;;;;;;0.55;0.55;;;7.10;99.90;;;;;;5013239;28;20056;-77
2022/01/30 00:09:16;;;;;;;0.10;0.10;;;7.10;99.90;;;;;;5012353;28;20026;-77
2022/01/30 00:11:45;;;;;;;0.17;0.17;;;7.10;99.90;;;;;;5013061;28;20089;-77
2022/01/30 00:14:14;;;;;;;0.00;0.00;;;7.10;99.90;;;;;;5013366;28;20080;-77
2022/01/30 00:16:40;;;;;;;0.30;0.30;;;7.20;99.90;;;;;;5011540;28;20109;-85
2022/01/30 00:19:24;;;;;;;0.20;0.20;;;7.10;99.90;;;;;;5012446;28;20096;-77
2022/01/30 00:22:00;;;;;;;0.30;0.30;;;7.20;99.90;;;;;;5009798;28;20474;-77
2022/01/30 00:24:42;;;;;;;0.20;0.20;;;7.20;99.90;;;;;;5004853;28;20015;-77
2022/01/30 00:27:14;;;;;;;0.10;0.10;;;7.20;99.90;;;;;;5008918;28;20068;-77
2022/01/30 00:29:40;;;;;;;2.28;0.50;;;7.20;99.90;;;;;;5013020;28;20481;-85
2022/01/30 00:32:06;;;;;;;0.40;0.40;;;7.20;99.90;;;;;;5014676;28;20030;-77
2022/01/30 00:34:32;;;;;;;0.32;0.32;;;7.20;99.90;;;;;;5011570;28;20054;-84
2022/01/30 00:36:57;;;;;;;0.05;0.05;;;7.20;99.90;;;;;;5013473;28;20489;-77
2022/01/30 00:39:23;;;;;;;0.05;0.05;;;7.20;99.90;;;;;;5016994;28;20567;-78
2022/01/30 00:41:49;;;;;;;0.45;0.40;;;7.20;99.90;;;;;;5005075;28;20029;-77
2022/01/30 00:44:14;;;;;;;0.00;0.00;;;7.20;99.90;;;;;;5017049;28;20101;-77
2022/01/30 00:46:41;;;;;;;0.30;0.30;;;7.20;99.90;;;;;;5004887;28;20028;-77
2022/01/30 00:49:07;;;;;;;0.17;0.17;;;7.20;99.90;;;;;;5016642;28;20447;-77
2022/01/30 00:51:37;;;;;;;0.10;0.10;;;7.20;99.90;;;;;;5016809;28;20026;-85
2022/01/30 00:54:03;;;;;;;0.00;0.00;;;7.20;99.90;;;;;;5016637;28;20025;-85
2022/01/30 00:56:29;;;;;;;0.85;0.73;;;7.20;99.90;;;;;;5017279;28;20041;-76
2022/01/30 00:58:54;;;;;;;1.17;0.93;;;7.20;99.90;;;;;;5016393;28;20058;-76
2022/01/30 01:01:20;;;;;;;3.35;1.60;;;7.20;99.90;;;;;;5016837;28;20397;-77
2022/01/30 01:03:46;;;;;;;0.20;0.20;;;7.20;99.90;;;;;;5016559;28;20018;-77
2022/01/30 01:06:11;;;;;;;0.17;0.17;;;7.20;99.90;;;;;;5016625;28;20029;-77
2022/01/30 01:08:54;;;;;;;1.00;0.95;;;7.20;99.90;;;;;;5014061;28;20393;-85
2022/01/30 01:24:07;;;;;;;4.68;0.70;;;7.20;99.90;;;;;;5016271;28;20030;-77
2022/01/30 01:26:34;;;;;;;0.10;0.10;;;7.20;99.90;;;;;;5014106;28;20014;-84
2022/01/30 01:29:00;;;;;;;0.20;0.20;;;7.20;99.90;;;;;;5015775;28;20374;-77
2022/01/30 01:31:26;;;;;;;1.00;0.73;;;7.30;99.90;;;;;;5016116;28;20157;-77
2022/01/30 01:36:36;;;;;;;0.13;0.13;;;7.20;99.90;;;;;;5013738;28;20084;-85
2022/01/30 01:39:03;;;;;;;3.50;0.70;;;7.20;99.90;;;;;;5015606;28;20031;-77
2022/01/30 01:41:31;;;;;;;0.85;0.65;;;7.20;99.90;;;;;;5014594;28;20111;-77
2022/01/30 01:43:58;;;;;;;0.10;0.10;;;7.20;99.90;;;;;;5016031;28;20026;-77
2022/01/30 01:46:32;;;;;;;3.53;1.30;;;7.20;99.90;;;;;;5022062;28;20076;-84
2022/01/30 01:48:57;;;;;;;0.65;0.65;;;7.20;99.90;;;;;;5014214;28;20030;-77
2022/01/30 01:51:26;;;;;;;4.68;1.27;;;7.20;99.90;;;;;;5015516;28;20032;-77
2022/01/30 01:53:57;;;;;;;0.95;0.60;;;7.20;99.90;;;;;;5015252;28;20465;-77
2022/01/30 01:56:25;;;;;;;0.20;0.20;;;7.20;99.90;;;;;;5015829;28;20543;-77
2022/01/30 01:58:51;;;;;;;0.85;0.85;;;7.20;99.90;;;;;;5015132;28;20053;-77
2022/01/30 02:01:17;;;;;;;5.13;1.17;;;7.20;99.90;;;;;;5015323;28;20026;-77
2022/01/30 02:03:45;;;;;;;3.72;0.70;;;7.30;99.90;;;;;;5015200;28;20026;-77
2022/01/30 02:06:15;;;;;;;0.65;0.65;;;7.20;99.90;;;;;;5009476;28;20558;-85
2022/01/30 02:08:45;;;;;;;0.55;0.55;;;7.20;99.90;;;;;;5014722;28;20363;-77
2022/01/30 02:14:16;;;;;;;1.17;0.47;;;7.30;99.90;;;;;;5015507;28;20033;-85
2022/01/30 02:27:27;;;;;;;1.27;1.25;;;7.20;99.90;;;;;;5013746;28;20026;-86
2022/01/30 02:29:53;;;;;;;0.47;0.32;;;7.20;99.90;;;;;;5007265;28;20034;-79
2022/01/30 02:32:20;;;;;;;0.30;0.30;;;7.20;99.90;;;;;;5014910;28;20032;-77
2022/01/30 02:34:45;;;;;;;0.45;0.45;;;7.20;99.90;;;;;;5015044;28;20033;-77
2022/01/30 02:37:16;;;;;;;2.67;1.40;;;7.20;99.90;;;;;;5011517;28;20022;-77
2022/01/30 02:39:41;;;;;;;0.80;0.80;;;7.20;99.90;;;;;;5014643;28;20022;-77
2022/01/30 02:42:08;;;;;;;0.55;0.55;;;7.20;99.90;;;;;;5014838;28;20390;-86
2022/01/30 02:44:42;;;;;;;0.50;0.50;;;7.20;99.90;;;;;;5014700;28;20492;-79
2022/01/30 02:47:21;;;;;;;0.25;0.25;;;7.20;99.90;;;;;;5014716;28;20105;-86
2022/01/30 02:52:33;;;;;;;0.00;0.00;;;7.20;99.90;;;;;;5013876;28;20452;-77
2022/01/30 02:54:59;;;;;;;0.52;0.52;;;7.20;99.90;;;;;;5014515;28;20021;-85
2022/01/30 02:57:24;;;;;;;0.03;0.03;;;7.20;99.90;;;;;;5001756;28;20050;-83
2022/01/30 02:59:50;;;;;;;0.20;0.20;;;7.20;99.90;;;;;;5013732;28;20393;-77
2022/01/30 03:02:16;;;;;;;0.13;0.13;;;7.30;99.90;;;;;;5014395;28;20022;-77
2022/01/30 03:04:42;;;;;;;0.03;0.03;;;7.20;99.90;;;;;;5012738;28;20025;-77
2022/01/30 03:07:08;;;;;;;0.45;0.45;;;7.20;99.90;;;;;;5014139;28;20029;-77
2022/01/30 03:09:35;;;;;;;0.20;0.20;;;7.20;99.90;;;;;;5021415;28;20053;-77
2022/01/30 03:12:01;;;;;;;0.00;0.00;;;7.20;99.90;;;;;;5013929;28;20413;-77
2022/01/30 03:14:26;;;;;;;0.03;0.03;;;7.20;99.90;;;;;;5014235;28;20038;-77
2022/01/30 03:16:53;;;;;;;1.65;0.30;;;7.20;99.90;;;;;;5014010;28;20101;-76
2022/01/30 03:19:19;;;;;;;0.10;0.10;;;7.20;99.90;;;;;;5013753;28;20018;-77
2022/01/30 03:21:45;;;;;;;0.20;0.20;;;7.30;99.90;;;;;;5013991;28;20563;-77
2022/01/30 03:24:10;;;;;;;0.22;0.22;;;7.20;99.90;;;;;;5012051;28;20018;-77
2022/01/30 03:26:39;;;;;;;0.10;0.10;;;7.20;99.90;;;;;;5024261;28;20097;-85
2022/01/30 03:29:06;;;;;;;0.20;0.20;;;7.20;99.90;;;;;;5013765;28;20481;-86
2022/01/30 03:31:40;;;;;;;0.60;0.55;;;7.20;99.90;;;;;;5002100;28;20018;-77
2022/01/30 03:34:08;;;;;;;0.30;0.30;;;7.20;99.90;;;;;;5013984;28;20022;-86
2022/01/30 03:36:35;;;;;;;0.10;0.10;;;7.30;99.90;;;;;;5012530;28;20030;-77
2022/01/30 03:39:01;;;;;;;0.05;0.05;;;7.30;99.90;;;;;;5021040;28;20066;-77
2022/01/30 03:41:26;;;;;;;0.32;0.15;;;7.30;99.90;;;;;;5013813;28;20042;-77
2022/01/30 03:43:55;;;;;;;0.10;0.10;;;7.30;99.90;;;;;;5003610;28;20030;-77
2022/01/30 03:46:22;;;;;;;0.25;0.25;;;7.30;99.90;;;;;;5011446;28;20021;-76
2022/01/30 03:48:48;;;;;;;0.03;0.03;;;7.30;99.90;;;;;;5004711;28;20022;-86
2022/01/30 03:51:14;;;;;;;0.00;0.00;;;7.30;99.90;;;;;;5011867;28;20080;-77
2022/01/30 03:53:40;;;;;;;0.10;0.10;;;7.30;99.90;;;;;;5013188;28;20025;-85
2022/01/30 03:56:06;;;;;;;0.13;0.13;;;7.30;99.90;;;;;;5013559;28;20555;-86
2022/01/30 03:58:33;;;;;;;1.77;0.68;;;7.30;99.90;;;;;;5013416;28;20049;-77
2022/01/30 04:00:59;;;;;;;0.28;0.28;;;7.20;99.90;;;;;;5013390;28;20022;-77
2022/01/30 04:03:24;;;;;;;0.32;0.32;;;7.30;99.90;;;;;;5013413;28;20029;-77
2022/01/30 04:05:50;;;;;;;0.40;0.40;;;7.30;99.90;;;;;;5013279;28;20116;-77
2022/01/30 04:08:16;;;;;;;0.28;0.28;;;7.20;99.90;;;;;;5013124;28;20028;-85
2022/01/30 04:10:43;;;;;;;0.10;0.10;;;7.20;99.90;;;;;;5014405;28;20018;-80
2022/01/30 04:13:09;;;;;;;0.08;0.08;;;7.30;99.90;;;;;;5019381;28;20127;-86
2022/01/30 04:15:35;;;;;;;0.03;0.03;;;7.30;99.90;;;;;;5013082;28;20014;-77
2022/01/30 04:18:02;;;;;;;0.00;0.00;;;7.30;99.90;;;;;;5012570;28;20040;-86
2022/01/30 04:20:29;;;;;;;0.60;0.60;;;7.30;99.90;;;;;;5014332;28;20045;-77
2022/01/30 04:22:55;;;;;;;0.60;0.20;;;7.30;99.90;;;;;;5013086;28;20033;-77
2022/01/30 04:25:21;;;;;;;0.17;0.17;;;7.30;99.90;;;;;;5013302;28;20026;-77
2022/01/30 04:27:47;;;;;;;0.10;0.10;;;7.30;99.90;;;;;;5009674;28;20037;-77
2022/01/30 04:30:13;;;;;;;0.25;0.25;;;7.20;99.90;;;;;;5013521;28;20018;-86
2022/01/30 04:32:42;;;;;;;0.00;0.00;;;7.20;99.90;;;;;;5013182;28;20033;-77
2022/01/30 04:35:17;;;;;;;0.70;0.70;;;7.30;99.90;;;;;;5013190;28;20022;-77
2022/01/30 04:41:23;;;;;;;0.70;0.68;;;7.30;99.90;;;;;;4971645;28;20105;-77
2022/01/30 04:57:41;;;;;;;0.30;0.30;;;7.30;99.90;;;;;;4944753;28;20047;-77
2022/01/30 05:07:48;;;;;;;1.45;1.35;;;7.20;99.90;;;;;;4971193;28;20042;-77
2022/01/30 05:10:14;;;;;;;0.68;0.65;;;7.20;99.90;;;;;;4955191;28;20026;-77
2022/01/30 05:12:52;;;;;;;0.40;0.40;;;7.20;99.90;;;;;;4968992;28;20034;-77
2022/01/30 05:15:20;;;;;;;0.10;0.10;;;7.20;99.90;;;;;;4990528;28;20422;-77
2022/01/30 05:17:46;;;;;;;0.32;0.17;;;7.20;99.90;;;;;;4992810;28;20425;-84
2022/01/30 05:20:12;;;;;;;0.63;0.63;;;7.20;99.90;;;;;;4990157;28;20029;-85
2022/01/30 05:22:38;;;;;;;7.68;2.60;;;7.20;99.90;;;;;;4993375;28;20082;-77
2022/01/30 05:25:04;;;;;;;0.90;0.90;;;7.20;99.90;;;;;;4996510;28;20050;-85
2022/01/30 05:27:30;;;;;;;0.22;0.22;;;7.20;99.90;;;;;;4994355;28;20434;-77
2022/01/30 05:29:56;;;;;;;1.67;1.08;;;7.20;99.90;;;;;;4996598;28;20105;-77
2022/01/30 05:32:22;;;;;;;0.82;0.57;;;7.20;99.90;;;;;;4999786;28;20071;-77
2022/01/30 05:34:48;;;;;;;1.08;0.98;;;7.20;99.90;;;;;;4996472;28;20405;-77
2022/01/30 05:37:18;;;;;;;0.10;0.05;;;7.10;99.90;;;;;;4994201;28;20104;-85
2022/01/30 05:39:45;;;;;;;0.30;0.30;;;7.10;99.90;;;;;;4996262;28;20034;-85
2022/01/30 05:42:12;;;;;;;2.00;1.35;;;7.10;99.90;;;;;;4996538;28;20030;-77
2022/01/30 05:44:58;;;;;;;1.40;1.30;;;7.20;99.90;;;;;;4995144;28;20019;-77
2022/01/30 05:47:31;;;;;;;2.90;1.35;;;7.20;99.90;;;;;;4996055;28;20077;-77
2022/01/30 05:49:57;;;;;;;0.35;0.35;;;7.20;99.90;;;;;;4995698;28;20022;-77
2022/01/30 05:52:24;;;;;;;0.63;0.63;;;7.20;99.90;;;;;;4996944;28;20442;-77
2022/01/30 05:54:50;;;;;;;0.88;0.88;;;7.20;99.90;;;;;;4995122;28;20106;-77
2022/01/30 05:57:16;;;;;;;0.35;0.28;;;7.20;99.90;;;;;;4998692;28;20057;-77
2022/01/30 05:59:41;;;;;;;0.10;0.10;;;7.20;99.90;;;;;;5015157;28;20029;-77
2022/01/30 06:02:07;;;;;;;1.10;1.08;;;7.20;99.90;;;;;;5015531;28;20036;-77
2022/01/30 06:04:33;;;;;;;1.75;0.25;;;7.20;99.90;;;;;;5015485;28;20018;-86
2022/01/30 06:07:00;;;;;;;0.00;0.00;;;7.20;99.90;;;;;;5011649;28;20026;-77
2022/01/30 06:09:26;;;;;;;1.65;1.45;;;7.20;99.90;;;;;;5015339;28;20029;-85
2022/01/30 06:11:52;;;;;;;0.10;0.10;;;7.20;99.90;;;;;;5012851;28;20063;-77
2022/01/30 06:14:20;;;;;;;0.20;0.20;;;7.20;99.90;;;;;;5014679;28;20068;-77
2022/01/30 06:16:47;;;;;;;0.70;0.70;;;7.20;99.90;;;;;;5014419;28;20489;-85
2022/01/30 06:19:13;;;;;;;0.20;0.20;;;7.20;99.90;;;;;;5015090;28;20022;-77
2022/01/30 06:21:39;;;;;;;3.40;1.25;;;7.30;99.90;;;;;;5012338;28;20053;-85
2022/01/30 06:24:05;;;;;;;3.63;0.55;;;7.30;99.90;;;;;;5013906;28;20117;-77
2022/01/30 06:26:30;;;;;;;0.22;0.22;;;7.30;99.90;;;;;;5001974;28;20023;-77
2022/01/30 06:28:56;;;;;;;1.13;1.08;;;7.30;99.90;;;;;;5015160;28;20014;-77
2022/01/30 06:31:22;;;;;;;0.70;0.70;;;7.30;99.90;;;;;;5014877;28;20022;-77
2022/01/30 06:33:48;;;;;;;0.22;0.22;;;7.30;99.90;;;;;;5014372;28;20481;-85
2022/01/30 06:36:14;;;;;;;0.05;0.05;;;7.30;99.90;;;;;;5009281;28;20038;-77
2022/01/30 06:38:39;;;;;;;0.20;0.20;;;7.30;99.90;;;;;;5004986;28;20455;-85
2022/01/30 06:41:05;;;;;;;1.27;0.63;;;7.30;99.90;;;;;;5003630;28;20069;-77
2022/01/30 06:43:31;;;;;;;0.00;0.00;;;7.30;99.90;;;;;;5014800;28;20105;-77
2022/01/30 06:45:56;;;;;;;0.10;0.10;;;7.30;99.90;;;;;;5013136;28;20489;-77
2022/01/30 06:48:22;;;;;;;0.75;0.75;;;7.30;99.90;;;;;;5007433;28;20023;-84
2022/01/30 06:50:48;;;;;;;0.22;0.22;;;7.30;99.90;;;;;;5010237;28;20507;-77
2022/01/30 06:53:14;;;;;;;0.00;0.00;;;7.30;99.90;;;;;;5007828;28;20034;-86
2022/01/30 06:55:42;;;;;;;1.55;0.55;;;7.30;99.90;;;;;;5010440;28;20026;-85
2022/01/30 06:58:14;;;;;;;0.00;0.00;;;7.40;99.90;;;;;;5014545;28;20046;-77
2022/01/30 07:00:41;;;;;;;0.20;0.20;;;7.40;99.90;;;;;;5013798;28;20033;-85
2022/01/30 07:03:07;;;;;;;0.35;0.35;;;7.40;99.90;;;;;;5012836;28;20489;-77
2022/01/30 07:05:33;;;;;;;2.03;1.02;;;7.40;99.90;;;;;;5014240;28;20029;-85
2022/01/30 07:07:59;;;;;;;0.03;0.03;;;7.40;99.90;;;;;;5012468;28;20025;-77
2022/01/30 07:10:25;;;;;;;0.75;0.75;;;7.40;99.90;;;;;;5014082;28;20034;-77
2022/01/30 07:12:50;;;;;;;0.25;0.25;;;7.40;99.90;;;;;;5012110;28;20033;-85
2022/01/30 07:15:16;;;;;;;0.35;0.35;;;7.40;99.90;;;;;;5002725;28;20031;-76
2022/01/30 07:17:42;;;;;;;0.20;0.20;;;7.40;99.90;;;;;;5013886;28;20072;-77
2022/01/30 07:20:09;;;;;;;0.32;0.32;;;7.40;99.90;;;;;;5013906;28;20021;-77
2022/01/30 07:22:35;;;;;;;0.00;0.00;;;7.40;99.90;;;;;;5013400;28;20026;-77
2022/01/30 07:25:02;;;;;;;0.00;0.00;;;7.40;99.90;;;;;;5014028;28;20543;-85
2022/01/30 07:27:28;;;;;;;0.25;0.25;;;7.50;99.90;;;;;;5011980;28;20036;-77
2022/01/30 07:29:54;;;;;;;0.20;0.20;;;7.40;99.90;;;;;;5013808;28;20036;-77
2022/01/30 07:32:20;;;;;;;0.95;0.57;;;7.40;99.90;;;;;;5013919;28;20101;-85
2022/01/30 07:34:50;;;;;;;1.35;0.88;;;7.40;99.90;;;;;;5013742;28;20029;-85
2022/01/30 07:37:16;;;;;;;0.38;0.38;;;7.50;99.90;;;;;;5012233;28;20120;-77
2022/01/30 07:39:42;;;;;;;0.43;0.43;;;7.50;99.90;;;;;;5013341;28;20088;-77
2022/01/30 07:42:08;;;;;;;0.52;0.25;;;7.50;99.90;;;;;;5004294;28;20038;-77
2022/01/30 07:44:34;;;;;;;1.35;0.65;;;7.50;99.90;;;;;;5011432;28;20493;-77
2022/01/30 07:47:00;;;;;;;0.10;0.10;;;7.50;99.90;;;;;;5013036;28;20022;-77
2022/01/30 07:49:25;;;;;;;0.20;0.20;;;7.50;99.90;;;;;;5028430;28;20519;-77
2022/01/30 07:51:51;;;;;;;0.05;0.05;;;7.50;99.90;;;;;;5013373;28;20053;-86
2022/01/30 07:54:16;;;;;;;0.30;0.30;;;7.50;99.90;;;;;;5014563;28;20065;-77
2022/01/30 07:56:42;;;;;;;0.00;0.00;;;7.60;99.90;;;;;;5013919;28;20046;-77
2022/01/30 07:59:08;;;;;;;0.00;0.00;;;7.60;99.90;;;;;;5013091;28;20156;-77
2022/01/30 08:01:33;;;;;;;0.00;0.00;;;7.50;99.90;;;;;;5007353;28;20026;-77
2022/01/30 08:04:00;;;;;;;0.00;0.00;;;7.50;99.90;;;;;;5011061;28;20521;-85
2022/01/30 08:06:26;;;;;;;0.00;0.00;;;7.60;99.90;;;;;;5021987;28;20040;-77
2022/01/30 08:08:52;;;;;;;0.00;0.00;;;7.60;99.90;;;;;;5012939;28;20053;-77
2022/01/30 08:11:18;;;;;;;0.17;0.17;;;7.60;99.90;;;;;;5012829;28;20492;-77
2022/01/30 08:13:44;;;;;;;0.15;0.15;;;7.60;99.90;;;;;;5012626;28;20485;-77
2022/01/30 08:16:09;;;;;;;0.20;0.20;;;7.60;99.90;;;;;;5013043;28;20030;-86
2022/01/30 08:18:37;;;;;;;0.10;0.10;;;7.60;99.90;;;;;;5025779;28;20058;-77
2022/01/30 08:21:04;;;;;;;0.05;0.05;;;7.60;99.90;;;;;;5013277;28;20425;-77
2022/01/30 08:23:32;;;;;;;0.00;0.00;;;7.60;99.90;;;;;;4999052;28;20025;-77
2022/01/30 08:25:58;;;;;;;0.00;0.00;;;7.60;99.90;;;;;;5010614;28;20033;-86
2022/01/30 08:28:24;;;;;;;0.20;0.20;;;7.70;99.90;;;;;;5010920;28;20015;-85
2022/01/30 08:30:51;;;;;;;0.13;0.13;;;7.70;99.90;;;;;;5013200;28;20105;-86
2022/01/30 08:33:17;;;;;;;0.00;0.00;;;7.70;99.90;;;;;;5012849;28;20034;-77
2022/01/30 08:35:44;;;;;;;0.25;0.25;;;7.70;99.90;;;;;;5013287;28;20401;-77
2022/01/30 08:38:11;;;;;;;0.47;0.47;;;7.70;99.90;;;;;;5019842;28;20018;-77
2022/01/30 08:40:37;;;;;;;0.13;0.13;;;7.70;99.90;;;;;;5004290;28;20117;-77
2022/01/30 08:43:03;;;;;;;0.10;0.10;;;7.80;99.90;;;;;;5011665;28;20049;-77
2022/01/30 08:45:28;;;;;;;4.03;0.32;;;7.80;99.90;;;;;;5013091;28;20026;-78
2022/01/30 08:47:54;;;;;;;0.20;0.20;;;7.80;99.90;;;;;;5012170;28;20018;-77
2022/01/30 08:50:21;;;;;;;0.03;0.03;;;7.80;99.90;;;;;;5012992;28;20042;-77
2022/01/30 08:52:47;;;;;;;0.00;0.00;;;7.80;99.90;;;;;;5012573;28;20049;-86
2022/01/30 08:55:14;;;;;;;0.00;0.00;;;7.90;99.90;;;;;;5013243;28;20393;-85
2022/01/30 08:57:39;;;;;;;1.35;0.30;;;7.90;99.90;;;;;;5013255;28;20136;-77
2022/01/30 09:00:09;;;;;;;0.00;0.00;;;7.90;99.90;;;;;;5008392;28;20077;-84
2022/01/30 09:02:34;;;;;;;3.20;0.82;;;8.00;99.90;;;;;;5014808;28;20025;-77
2022/01/30 09:05:00;;;;;;;0.00;0.00;;;8.00;99.90;;;;;;5006473;28;20038;-77
2022/01/30 09:07:26;;;;;;;0.08;0.08;;;8.10;99.90;;;;;;5005965;28;20034;-77
2022/01/30 09:09:51;;;;;;;1.75;0.30;;;8.10;99.90;;;;;;5016502;28;20473;-86
2022/01/30 09:12:17;;;;;;;0.10;0.10;;;8.20;99.90;;;;;;5013857;28;20011;-85
2022/01/30 09:14:43;;;;;;;0.68;0.68;;;8.20;99.90;;;;;;5019908;28;20037;-86
2022/01/30 09:17:15;;;;;;;0.00;0.00;;;8.20;99.90;;;;;;5016609;28;20042;-77
2022/01/30 09:19:42;;;;;;;0.20;0.20;;;8.20;99.90;;;;;;5015762;28;20030;-77
2022/01/30 09:22:09;;;;;;;0.00;0.00;;;8.20;99.90;;;;;;5014020;28;20022;-77
2022/01/30 09:24:36;;;;;;;0.60;0.60;;;8.30;99.90;;;;;;5015916;28;20068;-77
2022/01/30 09:27:03;;;;;;;0.00;0.00;;;8.40;99.90;;;;;;5014123;28;20069;-77
2022/01/30 09:29:30;;;;;;;0.43;0.43;;;8.40;99.90;;;;;;5015971;28;20053;-78
2022/01/30 09:31:57;;;;;;;0.05;0.05;;;8.40;99.90;;;;;;5015163;28;20029;-77
2022/01/30 09:34:22;;;;;;;0.28;0.28;;;8.40;99.90;;;;;;5016174;28;20528;-77
2022/01/30 09:36:48;;;;;;;0.17;0.17;;;8.50;99.90;;;;;;5012947;28;20052;-85
2022/01/30 09:39:14;;;;;;;0.03;0.03;;;8.50;99.90;;;;;;5013688;28;20086;-77
2022/01/30 09:41:43;;;;;;;0.00;0.00;;;8.60;99.90;;;;;;5015986;28;20018;-78
2022/01/30 09:44:10;;;;;;;0.00;0.00;;;8.60;99.90;;;;;;5004416;28;20023;-77
2022/01/30 09:46:42;;;;;;;0.00;0.00;;;8.70;99.90;;;;;;5003185;28;20113;-77
2022/01/30 09:49:09;;;;;;;0.20;0.20;;;8.70;99.90;;;;;;5014326;28;20025;-77
2022/01/30 09:51:37;;;;;;;0.70;0.70;;;8.80;99.90;;;;;;5015718;28;20033;-86
2022/01/30 09:54:03;;;;;;;0.10;0.10;;;8.80;99.90;;;;;;5014844;28;20026;-77
2022/01/30 09:56:29;;;;;;;2.60;0.52;;;8.90;99.90;;;;;;5004021;28;20034;-77
2022/01/30 09:58:55;;;;;;;0.17;0.17;;;8.90;99.90;;;;;;5016580;28;20227;-79
2022/01/30 10:01:21;;;;;;;0.20;0.20;;;8.90;99.90;;;;;;5012909;28;20092;-77
2022/01/30 10:03:49;;;;;;;0.30;0.30;;;9.00;99.90;;;;;;5009918;28;20021;-85
2022/01/30 10:06:20;;;;;;;0.05;0.05;;;9.10;99.90;;;;;;5015613;28;20400;-77
2022/01/30 10:08:52;;;;;;;0.15;0.15;;;9.20;99.90;;;;;;5015064;28;20060;-77
2022/01/30 10:14:21;;;;;;;0.30;0.30;;;9.30;99.90;;;;;;5011897;28;20032;-78
2022/01/30 10:16:49;;;;;;;0.60;0.60;;;9.40;99.90;;;;;;5002188;28;20041;-86
2022/01/30 10:19:23;;;;;;;0.75;0.75;;;9.50;99.90;;;;;;5015481;28;20025;-77
2022/01/30 10:22:08;;;;;;;0.30;0.30;;;9.50;99.90;;;;;;5015040;28;20029;-78
2022/01/30 10:24:38;;;;;;;0.28;0.28;;;9.50;99.90;;;;;;5014825;28;20398;-77
2022/01/30 10:27:22;;;;;;;0.45;0.45;;;9.40;99.90;;;;;;5011394;28;20485;-86
2022/01/30 10:30:07;;;;;;;0.40;0.40;;;9.40;99.90;;;;;;5012993;28;20036;-85
2022/01/30 10:32:34;;;;;;;0.00;0.00;;;9.30;99.90;;;;;;5014850;28;20061;-77
2022/01/30 10:35:05;;;;;;;0.30;0.30;;;9.30;99.90;;;;;;5001873;28;20038;-77
2022/01/30 10:37:32;;;;;;;0.00;0.00;;;9.40;99.90;;;;;;5014065;28;20050;-77
2022/01/30 10:40:06;;;;;;;0.17;0.10;;;9.50;99.90;;;;;;5014544;28;20026;-85
2022/01/30 10:42:31;;;;;;;0.95;0.63;;;9.50;99.90;;;;;;5004401;28;20018;-86
2022/01/30 10:44:57;;;;;;;0.20;0.20;;;9.60;99.90;;;;;;5014849;28;20535;-77
2022/01/30 10:47:23;;;;;;;0.00;0.00;;;9.60;99.90;;;;;;5004307;28;20025;-86
2022/01/30 10:49:49;;;;;;;0.40;0.40;;;9.60;99.90;;;;;;5013884;28;20030;-86
2022/01/30 10:52:15;;;;;;;0.57;0.55;;;9.50;99.90;;;;;;5014441;28;20493;-77
2022/01/30 10:54:41;;;;;;;0.08;0.08;;;9.60;99.90;;;;;;5011823;28;20025;-77
2022/01/30 10:57:09;;;;;;;0.00;0.00;;;9.70;99.90;;;;;;5004254;28;20034;-77
2022/01/30 10:59:42;;;;;;;0.10;0.10;;;9.70;99.90;;;;;;5001159;28;20088;-77
2022/01/30 11:02:13;;;;;;;0.05;0.05;;;9.70;99.90;;;;;;5014443;28;20022;-77
2022/01/30 11:04:39;;;;;;;1.63;0.50;;;9.90;99.90;;;;;;5014489;28;20105;-77
2022/01/30 11:07:06;;;;;;;0.00;0.00;;;10.00;99.90;;;;;;5014298;28;20493;-78
2022/01/30 11:09:36;;;;;;;0.00;0.00;;;9.90;99.90;;;;;;5008646;28;20490;-77
2022/01/30 11:12:06;;;;;;;0.20;0.20;;;9.80;99.90;;;;;;5006347;28;20022;-78
2022/01/30 11:14:40;;;;;;;0.50;0.50;;;9.70;99.90;;;;;;5001568;28;20033;-86
2022/01/30 11:17:08;;;;;;;0.10;0.10;;;9.60;99.90;;;;;;4999878;28;20025;-86
2022/01/30 11:19:38;;;;;;;0.00;0.00;;;9.60;99.90;;;;;;5013996;28;20393;-77
2022/01/30 11:22:10;;;;;;;0.22;0.22;;;9.60;99.90;;;;;;5013484;28;20049;-79
2022/01/30 11:25:07;;;;;;;0.10;0.10;;;9.50;99.90;;;;;;5013189;28;20029;-77
2022/01/30 11:27:34;;;;;;;0.38;0.38;;;9.50;99.90;;;;;;4985675;28;20434;-77
2022/01/30 11:30:01;;;;;;;0.10;0.10;;;9.50;99.90;;;;;;5010422;28;20030;-86
2022/01/30 11:32:28;;;;;;;0.20;0.20;;;9.40;99.90;;;;;;5013994;28;20072;-77
2022/01/30 11:34:57;;;;;;;0.10;0.10;;;9.40;99.90;;;;;;5013968;28;20612;-86
2022/01/30 11:37:32;;;;;;;0.30;0.30;;;9.50;99.90;;;;;;5009878;28;20029;-77
2022/01/30 11:40:00;;;;;;;0.50;0.08;;;9.60;99.90;;;;;;5010587;28;20033;-77
2022/01/30 11:42:45;;;;;;;0.00;0.00;;;9.60;99.90;;;;;;5013866;28;20029;-86
2022/01/30 11:45:24;;;;;;;0.20;0.17;;;9.60;99.90;;;;;;5012384;28;20033;-77
2022/01/30 11:48:03;;;;;;;0.10;0.10;;;9.70;99.90;;;;;;5013402;28;20030;-86
2022/01/30 11:50:33;;;;;;;0.43;0.43;;;9.70;99.90;;;;;;5013598;28;20038;-77
2022/01/30 11:53:14;;;;;;;0.57;0.57;;;9.70;99.90;;;;;;5015514;28;20026;-83
2022/01/30 11:55:43;;;;;;;1.67;1.08;;;9.70;99.90;;;;;;5014731;28;20034;-77
2022/01/30 11:58:33;;;;;;;0.45;0.45;;;9.60;99.90;;;;;;5013056;28;20054;-77
2022/01/30 12:01:03;;;;;;;0.00;0.00;;;9.50;99.90;;;;;;5013553;28;20108;-77
2022/01/30 12:03:37;;;;;;;2.20;1.23;;;9.50;99.90;;;;;;5007750;28;20385;-77
2022/01/30 12:06:38;;;;;;;0.50;0.50;;;9.40;99.90;;;;;;5012852;28;20026;-86
2022/01/30 12:09:20;;;;;;;0.15;0.10;;;9.50;99.90;;;;;;5010699;28;20022;-77
2022/01/30 12:11:49;;;;;;;0.80;0.80;;;9.50;99.90;;;;;;4999628;28;20038;-86
2022/01/30 12:14:21;;;;;;;2.85;0.98;;;9.50;99.90;;;;;;5013059;28;20101;-77
2022/01/30 12:16:57;;;;;;;6.88;3.10;;;9.50;99.90;;;;;;5013364;28;20102;-85
2022/01/30 12:19:31;;;;;;;0.10;0.10;;;9.60;99.90;;;;;;5013209;28;20036;-77
2022/01/30 12:21:58;;;;;;;0.47;0.47;;;9.80;99.90;;;;;;5013256;28;20026;-86
2022/01/30 12:24:27;;;;;;;0.03;0.03;;;10.00;99.90;;;;;;5012633;28;20089;-78
2022/01/30 12:26:56;;;;;;;1.42;0.40;;;10.10;99.90;;;;;;5011947;28;20549;-81
2022/01/30 12:29:55;;;;;;;3.42;0.73;;;10.30;99.90;;;;;;5010357;28;20497;-85
2022/01/30 12:32:20;;;;;;;0.00;0.00;;;10.50;99.90;;;;;;4975042;28;20035;-77
2022/01/30 12:34:55;;;;;;;0.68;0.57;;;10.60;99.90;;;;;;5014858;28;20094;-85
2022/01/30 12:37:24;;;;;;;0.00;0.00;;;10.70;99.90;;;;;;5017229;28;20033;-77
2022/01/30 12:39:50;;;;;;;0.55;0.55;;;10.90;99.90;;;;;;5016919;28;20026;-86
2022/01/30 12:42:17;;;;;;;0.73;0.52;;;10.90;99.90;;;;;;5017236;28;20034;-77
2022/01/30 12:44:44;;;;;;;2.40;0.93;;;11.00;99.90;;;;;;5017155;28;20060;-77
2022/01/30 12:47:10;;;;;;;2.80;0.35;;;11.00;99.90;;;;;;5015883;28;20018;-77
2022/01/30 12:49:51;;;;;;;3.83;0.45;;;11.00;99.90;;;;;;5016915;28;20488;-77
2022/01/30 12:52:36;;;;;;;0.38;0.38;;;11.00;99.90;;;;;;5017336;28;20037;-77
2022/01/30 12:55:09;;;;;;;0.55;0.43;;;10.80;99.90;;;;;;5007741;28;20071;-77
2022/01/30 12:57:36;;;;;;;0.13;0.13;;;10.60;99.90;;;;;;5017129;28;20516;-85
2022/01/30 13:00:05;;;;;;;0.10;0.10;;;10.40;99.90;;;;;;5019676;28;20045;-83
2022/01/30 13:02:38;;;;;;;0.10;0.10;;;10.20;99.90;;;;;;5026520;28;20527;-77
2022/01/30 13:05:09;;;;;;;0.10;0.10;;;10.00;99.90;;;;;;5016328;28;20029;-77
2022/01/30 13:07:36;;;;;;;2.22;1.05;;;9.90;99.90;;;;;;5013547;28;20030;-86
2022/01/30 13:10:12;;;;;;;0.40;0.25;;;9.80;99.90;;;;;;5016482;28;20026;-77
2022/01/30 13:12:38;;;;;;;0.10;0.10;;;9.90;99.90;;;;;;5014635;28;20026;-87
2022/01/30 13:15:09;;;;;;;0.82;0.77;;;10.00;99.90;;;;;;5016268;28;20014;-77
2022/01/30 13:17:35;;;;;;;0.00;0.00;;;10.00;99.90;;;;;;5002805;28;20374;-77
2022/01/30 13:20:02;;;;;;;0.10;0.10;;;10.00;99.90;;;;;;5026199;28;20110;-77
2022/01/30 13:22:34;;;;;;;0.17;0.17;;;10.10;99.90;;;;;;5016261;28;20411;-78
2022/01/30 13:25:06;;;;;;;0.10;0.10;;;10.10;99.90;;;;;;5015742;28;20029;-77
2022/01/30 13:27:33;;;;;;;5.55;1.23;;;10.00;99.90;;;;;;5016371;28;20499;-77
2022/01/30 13:29:59;;;;;;;0.00;0.00;;;9.90;99.90;;;;;;5003467;28;20025;-77
2022/01/30 13:32:26;;;;;;;0.55;0.55;;;9.60;99.90;;;;;;5016314;28;20029;-77
2022/01/30 13:34:53;;;;;;;0.10;0.10;;;9.50;99.90;;;;;;5016054;28;20029;-87
2022/01/30 13:37:21;;;;;;;0.00;0.00;;;9.50;99.90;;;;;;5012790;28;20037;-77
2022/01/30 13:45:07;;;;;;;0.80;0.43;;;9.40;99.90;;;;;;5012701;28;20493;-87
2022/01/30 13:47:34;;;;;;;0.10;0.10;;;9.50;99.90;;;;;;5013817;28;20037;-77
2022/01/30 13:50:00;;;;;;;0.05;0.05;;;9.50;99.90;;;;;;5003930;28;20041;-77
2022/01/30 13:52:32;;;;;;;0.35;0.22;;;9.60;99.90;;;;;;5014550;28;20117;-86
2022/01/30 13:55:03;;;;;;;0.28;0.28;;;9.60;99.90;;;;;;5004593;28;20033;-77
2022/01/30 13:57:34;;;;;;;0.35;0.35;;;9.60;99.90;;;;;;5016004;28;20050;-77
2022/01/30 14:00:18;;;;;;;0.30;0.30;;;9.70;99.90;;;;;;5015678;28;20052;-77
2022/01/30 14:02:58;;;;;;;0.13;0.13;;;9.70;99.90;;;;;;5016262;28;20018;-87
2022/01/30 14:05:27;;;;;;;5.18;1.35;;;9.70;99.90;;;;;;5014415;28;20066;-77
2022/01/30 14:07:54;;;;;;;0.10;0.10;;;9.90;99.90;;;;;;5011263;28;20018;-86